createdAt,value
2022-11-10T00:02:14.370Z,13.43
2022-11-10T00:04:59.808Z,13.40
2022-11-10T00:07:44.972Z,13.79
2022-11-10T00:10:30.381Z,13.71
2022-11-10T00:13:15.382Z,13.75
2022-11-10T00:16:21.946Z,13.88
2022-11-10T00:19:07.002Z,13.60
2022-11-10T00:21:52.967Z,13.62
2022-11-10T00:24:38.444Z,13.60
2022-11-10T00:27:23.781Z,13.79
2022-11-10T00:30:09.456Z,13.74
2022-11-10T00:32:54.984Z,13.63
2022-11-10T00:35:40.382Z,13.67
2022-11-10T00:38:26.318Z,13.95
2022-11-10T00:41:11.652Z,13.95
2022-11-10T00:43:57.070Z,13.92
2022-11-10T00:46:42.775Z,13.89
2022-11-10T00:49:28.343Z,13.91
2022-11-10T00:52:13.674Z,14.07
2022-11-10T00:54:59.037Z,14.06
2022-11-10T00:57:44.310Z,13.89
2022-11-10T01:00:32.939Z,13.90
2022-11-10T01:03:19.062Z,13.76
2022-11-10T01:06:15.754Z,13.67
2022-11-10T01:09:01.099Z,13.10
2022-11-10T01:11:46.347Z,13.40
2022-11-10T01:14:31.572Z,13.52
2022-11-10T01:17:17.173Z,13.51
2022-11-10T01:20:02.592Z,13.65
2022-11-10T01:22:48.111Z,13.52
2022-11-10T01:25:33.244Z,13.51
2022-11-10T01:28:18.743Z,13.69
2022-11-10T01:31:07.482Z,13.50
2022-11-10T01:33:52.654Z,13.70
2022-11-10T01:36:37.972Z,13.37
2022-11-10T01:39:23.262Z,13.55
2022-11-10T01:42:08.536Z,13.87
2022-11-10T01:45:24.944Z,13.30
2022-11-10T01:48:13.142Z,13.33
2022-11-10T01:51:02.560Z,13.30
2022-11-10T01:53:51.613Z,13.22
2022-11-10T01:56:40.223Z,13.55
2022-11-10T01:59:29.289Z,13.14
2022-11-10T02:02:25.376Z,12.86
2022-11-10T02:05:10.665Z,13.14
2022-11-10T02:07:56.879Z,13.12
2022-11-10T02:10:42.268Z,13.12
2022-11-10T02:13:27.507Z,13.31
2022-11-10T02:16:12.921Z,13.57
2022-11-10T02:18:58.248Z,13.61
2022-11-10T02:21:43.689Z,13.40
2022-11-10T02:24:29.057Z,13.32
2022-11-10T02:27:14.271Z,13.40
2022-11-10T02:30:00.302Z,13.40
2022-11-10T02:32:45.511Z,13.73
2022-11-10T02:35:30.840Z,13.62
2022-11-10T02:38:16.836Z,13.40
2022-11-10T02:41:01.929Z,13.13
2022-11-10T02:43:47.491Z,13.11
2022-11-10T02:46:32.616Z,13.21
2022-11-10T02:49:17.975Z,13.38
2022-11-10T02:52:03.471Z,13.49
2022-11-10T02:54:48.817Z,13.38
2022-11-10T02:57:34.225Z,13.28
2022-11-10T03:00:19.885Z,13.24
2022-11-10T03:03:05.264Z,13.23
2022-11-10T03:05:50.298Z,13.70
2022-11-10T03:08:35.659Z,13.39
2022-11-10T03:11:20.989Z,13.55
2022-11-10T03:14:06.371Z,13.27
2022-11-10T03:16:51.744Z,13.21
2022-11-10T03:19:37.737Z,13.02
2022-11-10T03:22:23.428Z,12.97
2022-11-10T03:25:09.562Z,13.24
2022-11-10T03:27:54.453Z,13.13
2022-11-10T03:30:39.923Z,13.42
2022-11-10T03:33:25.449Z,13.30
2022-11-10T03:36:11.100Z,13.24
2022-11-10T03:38:57.061Z,13.21
2022-11-10T03:41:42.096Z,12.96
2022-11-10T03:44:27.389Z,13.46
2022-11-10T03:47:12.747Z,12.97
2022-11-10T03:49:58.997Z,13.07
2022-11-10T03:52:47.090Z,12.97
2022-11-10T03:55:32.583Z,12.98
2022-11-10T03:58:18.774Z,13.06
2022-11-10T04:01:04.557Z,13.08
2022-11-10T04:03:51.675Z,13.29
2022-11-10T04:06:55.989Z,12.81
2022-11-10T04:09:42.764Z,12.93
2022-11-10T04:12:46.861Z,13.32
2022-11-10T04:15:44.262Z,12.80
2022-11-10T04:18:29.871Z,13.14
2022-11-10T04:21:15.512Z,13.11
2022-11-10T04:24:00.686Z,12.64
2022-11-10T04:26:47.469Z,12.81
2022-11-10T04:29:32.525Z,13.07
2022-11-10T04:32:17.777Z,12.94
2022-11-10T04:35:03.211Z,13.27
2022-11-10T04:37:48.425Z,13.33
2022-11-10T04:40:33.805Z,13.13
2022-11-10T04:43:19.120Z,13.15
2022-11-10T04:46:05.713Z,12.82
2022-11-10T04:48:52.090Z,12.77
2022-11-10T04:51:38.994Z,12.62
2022-11-10T04:54:26.221Z,12.68
2022-11-10T04:57:11.910Z,12.86
2022-11-10T04:59:57.910Z,12.63
2022-11-10T05:02:43.299Z,12.87
2022-11-10T05:05:29.305Z,12.69
2022-11-10T05:08:14.998Z,12.68
2022-11-10T05:11:00.254Z,12.65
2022-11-10T05:13:45.821Z,12.44
2022-11-10T05:16:32.444Z,12.70
2022-11-10T05:19:18.653Z,12.51
2022-11-10T05:22:04.409Z,12.62
2022-11-10T05:24:52.248Z,12.49
2022-11-10T05:27:37.624Z,12.54
2022-11-10T05:30:23.616Z,12.64
2022-11-10T05:33:08.995Z,12.65
2022-11-10T05:35:54.335Z,12.59
2022-11-10T05:38:43.553Z,12.53
2022-11-10T05:41:29.233Z,12.66
2022-11-10T05:44:14.604Z,12.57
2022-11-10T05:47:00.397Z,12.65
2022-11-10T05:49:45.770Z,12.69
2022-11-10T05:52:31.161Z,12.67
2022-11-10T05:55:18.599Z,12.70
2022-11-10T05:58:04.205Z,12.60
2022-11-10T06:00:49.345Z,12.55
2022-11-10T06:03:35.973Z,12.68
2022-11-10T06:06:23.184Z,12.80
2022-11-10T06:09:09.297Z,12.77
2022-11-10T06:11:54.532Z,12.50
2022-11-10T06:14:39.695Z,12.34
2022-11-10T06:17:26.365Z,12.47
2022-11-10T06:20:13.069Z,12.70
2022-11-10T06:23:09.415Z,12.66
2022-11-10T06:25:54.842Z,12.67
2022-11-10T06:28:40.232Z,12.32
2022-11-10T06:31:25.975Z,12.32
2022-11-10T06:34:11.165Z,12.45
2022-11-10T06:36:56.602Z,12.47
2022-11-10T06:39:42.640Z,12.45
2022-11-10T06:42:27.982Z,12.16
2022-11-10T06:45:13.930Z,12.21
2022-11-10T06:48:02.567Z,12.05
2022-11-10T06:50:50.584Z,11.99
2022-11-10T06:53:36.046Z,12.14
2022-11-10T06:56:21.618Z,12.43
2022-11-10T06:59:07.057Z,12.37
2022-11-10T07:01:52.380Z,12.44
2022-11-10T07:04:37.896Z,12.43
2022-11-10T07:07:23.446Z,12.30
2022-11-10T07:10:09.699Z,12.60
2022-11-10T07:12:59.324Z,12.49
2022-11-10T07:15:45.156Z,12.33
2022-11-10T07:18:31.098Z,12.75
2022-11-10T07:21:16.515Z,12.29
2022-11-10T07:24:02.302Z,12.44
2022-11-10T07:26:56.672Z,12.37
2022-11-10T07:29:41.929Z,12.43
2022-11-10T07:32:28.066Z,12.71
2022-11-10T07:35:14.470Z,12.65
2022-11-10T07:38:11.287Z,12.89
2022-11-10T07:40:57.121Z,12.72
2022-11-10T07:43:42.536Z,12.62
2022-11-10T07:46:27.952Z,13.19
2022-11-10T07:49:15.561Z,13.35
2022-11-10T07:52:00.988Z,14.45
2022-11-10T07:54:46.295Z,15.88
2022-11-10T07:57:31.560Z,16.94
2022-11-10T08:00:17.583Z,17.35
2022-11-10T08:03:07.699Z,17.32
2022-11-10T08:05:53.208Z,18.38
2022-11-10T08:08:38.407Z,17.99
2022-11-10T08:11:23.835Z,19.34
2022-11-10T08:14:14.087Z,19.77
2022-11-10T08:16:59.507Z,19.82
2022-11-10T08:19:44.663Z,19.88
2022-11-10T08:22:30.126Z,18.30
2022-11-10T08:25:15.857Z,17.06
2022-11-10T08:28:03.271Z,15.41
2022-11-10T08:30:49.466Z,15.08
2022-11-10T08:33:35.255Z,14.84
2022-11-10T08:36:20.443Z,14.09
2022-11-10T08:39:06.473Z,14.52
2022-11-10T08:41:51.596Z,14.04
2022-11-10T08:44:37.051Z,14.15
2022-11-10T08:47:22.575Z,14.17
2022-11-10T08:50:08.493Z,13.81
2022-11-10T08:52:54.141Z,13.81
2022-11-10T08:55:40.664Z,13.97
2022-11-10T08:58:26.156Z,14.02
2022-11-10T09:01:11.932Z,14.16
2022-11-10T09:03:57.209Z,14.22
2022-11-10T09:06:43.689Z,14.23
2022-11-10T09:09:29.415Z,14.72
2022-11-10T09:12:14.866Z,14.59
2022-11-10T09:15:01.031Z,14.92
2022-11-10T09:17:46.540Z,14.64
2022-11-10T09:20:33.769Z,15.04
2022-11-10T09:23:19.789Z,14.80
2022-11-10T09:26:08.715Z,15.37
2022-11-10T09:28:54.035Z,15.42
2022-11-10T09:31:39.737Z,15.11
2022-11-10T09:34:24.859Z,15.13
2022-11-10T09:37:10.503Z,14.87
2022-11-10T09:39:55.933Z,15.01
2022-11-10T09:42:47.100Z,15.04
2022-11-10T09:45:40.156Z,14.68
2022-11-10T09:48:30.876Z,15.00
2022-11-10T09:51:21.076Z,15.26
2022-11-10T09:54:22.965Z,15.57
2022-11-10T09:57:13.222Z,15.41
2022-11-10T09:59:58.823Z,15.26
2022-11-10T10:02:49.458Z,15.55
2022-11-10T10:05:56.425Z,15.36
2022-11-10T10:09:06.107Z,15.08
2022-11-10T10:11:54.549Z,15.03
2022-11-10T10:14:52.616Z,15.59
2022-11-10T10:17:49.305Z,15.38
2022-11-10T10:21:09.731Z,15.46
2022-11-10T10:24:21.212Z,15.42
2022-11-10T10:27:06.224Z,15.44
2022-11-10T10:29:51.658Z,15.60
2022-11-10T10:32:37.162Z,15.71
2022-11-10T10:35:23.121Z,15.70
2022-11-10T10:38:20.827Z,15.78
2022-11-10T10:41:19.594Z,15.81
2022-11-10T10:44:14.840Z,15.49
2022-11-10T10:47:01.263Z,15.49
2022-11-10T10:49:46.620Z,15.54
2022-11-10T10:52:32.417Z,15.79
2022-11-10T10:55:17.963Z,15.88
2022-11-10T10:58:18.933Z,15.60
2022-11-10T11:01:07.345Z,15.96
2022-11-10T11:03:53.206Z,16.19
2022-11-10T11:06:38.800Z,15.94
2022-11-10T11:09:29.528Z,16.40
2022-11-10T11:12:17.937Z,17.12
2022-11-10T11:15:23.499Z,16.72
2022-11-10T11:18:20.939Z,16.78
2022-11-10T11:21:24.844Z,16.41
2022-11-10T11:24:46.813Z,16.22
2022-11-10T11:28:00.658Z,16.36
2022-11-10T11:31:15.485Z,16.86
2022-11-10T11:34:03.922Z,16.57
2022-11-10T11:36:52.676Z,16.32
2022-11-10T11:40:03.808Z,16.62
2022-11-10T11:42:55.828Z,16.61
2022-11-10T11:46:00.100Z,16.77
2022-11-10T11:49:04.164Z,16.90
2022-11-10T11:51:55.332Z,17.06
2022-11-10T11:54:52.670Z,16.96
2022-11-10T11:58:06.323Z,16.80
2022-11-10T12:01:04.792Z,17.01
2022-11-10T12:04:11.807Z,16.89
2022-11-10T12:07:12.242Z,17.05
2022-11-10T12:10:43.320Z,17.46
2022-11-10T12:13:41.838Z,16.97
2022-11-10T12:16:31.941Z,17.37
2022-11-10T12:19:30.102Z,17.09
2022-11-10T12:22:27.420Z,17.04
2022-11-10T12:25:25.940Z,17.30
2022-11-10T12:28:22.551Z,16.67
2022-11-10T12:31:13.794Z,17.22
2022-11-10T12:34:09.211Z,16.96
2022-11-10T12:36:54.522Z,17.48
2022-11-10T12:39:46.749Z,17.24
2022-11-10T12:42:34.901Z,17.17
2022-11-10T12:45:24.344Z,17.61
2022-11-10T12:48:12.686Z,17.46
2022-11-10T12:51:11.248Z,16.74
2022-11-10T12:53:57.209Z,16.89
2022-11-10T12:56:58.535Z,16.96
2022-11-10T13:00:27.797Z,17.41
2022-11-10T13:03:16.298Z,17.11
2022-11-10T13:06:06.310Z,17.30
2022-11-10T13:08:52.296Z,16.98
2022-11-10T13:11:37.873Z,17.36
2022-11-10T13:14:29.464Z,16.99
2022-11-10T13:17:26.628Z,16.68
2022-11-10T13:20:40.256Z,17.46
2022-11-10T13:23:30.845Z,17.24
2022-11-10T13:26:44.640Z,17.52
2022-11-10T13:29:37.673Z,17.60
2022-11-10T13:32:27.781Z,17.03
2022-11-10T13:35:28.302Z,17.14
2022-11-10T13:38:35.665Z,17.40
2022-11-10T13:41:25.727Z,17.40
2022-11-10T13:44:24.710Z,17.45
2022-11-10T13:47:09.660Z,17.68
2022-11-10T13:50:25.263Z,17.01
2022-11-10T13:53:35.110Z,16.76
2022-11-10T13:56:57.899Z,17.54
2022-11-10T13:59:55.662Z,17.14
2022-11-10T14:02:55.644Z,16.90
2022-11-10T14:05:42.306Z,17.01
2022-11-10T14:08:29.508Z,17.22
2022-11-10T14:11:49.959Z,17.11
2022-11-10T14:14:35.774Z,17.30
2022-11-10T14:17:31.247Z,17.49
2022-11-10T14:20:45.128Z,17.11
2022-11-10T14:23:38.371Z,17.20
2022-11-10T14:26:28.602Z,17.36
2022-11-10T14:29:34.240Z,17.44
2022-11-10T14:32:21.648Z,17.41
2022-11-10T14:35:18.299Z,17.33
2022-11-10T14:38:05.453Z,17.18
2022-11-10T14:40:54.456Z,17.00
2022-11-10T14:43:39.733Z,16.75
2022-11-10T14:46:25.687Z,17.32
2022-11-10T14:49:11.354Z,16.88
2022-11-10T14:51:59.666Z,16.84
2022-11-10T14:54:46.645Z,16.93
2022-11-10T14:57:31.842Z,17.36
2022-11-10T15:00:19.494Z,16.91
2022-11-10T15:03:06.494Z,17.19
2022-11-10T15:05:52.088Z,16.90
2022-11-10T15:08:38.594Z,17.30
2022-11-10T15:11:44.450Z,17.31
2022-11-10T15:14:38.264Z,16.76
2022-11-10T15:17:44.443Z,17.31
2022-11-10T15:20:39.640Z,17.24
2022-11-10T15:23:33.421Z,17.03
2022-11-10T15:26:27.935Z,16.34
2022-11-10T15:29:22.876Z,16.58
2022-11-10T15:32:21.371Z,16.13
2022-11-10T15:35:27.605Z,16.63
2022-11-10T15:38:14.558Z,16.87
2022-11-10T15:41:10.646Z,17.08
2022-11-10T15:43:56.683Z,16.95
2022-11-10T15:46:42.046Z,16.84
2022-11-10T15:49:30.863Z,17.08
2022-11-10T15:52:19.023Z,17.33
2022-11-10T15:55:04.472Z,16.64
2022-11-10T15:57:50.002Z,16.42
2022-11-10T16:00:35.196Z,16.44
2022-11-10T16:03:22.849Z,16.70
2022-11-10T16:06:12.030Z,16.74
2022-11-10T16:08:57.477Z,16.53
2022-11-10T16:11:44.167Z,16.40
2022-11-10T16:14:29.783Z,16.31
2022-11-10T16:17:15.943Z,16.29
2022-11-10T16:20:01.229Z,16.34
2022-11-10T16:22:46.468Z,16.09
2022-11-10T16:25:33.544Z,16.09
2022-11-10T16:28:25.107Z,16.26
2022-11-10T16:31:11.658Z,16.51
2022-11-10T16:33:57.090Z,16.60
2022-11-10T16:36:43.924Z,16.42
2022-11-10T16:39:30.492Z,16.23
2022-11-10T16:42:15.689Z,16.09
2022-11-10T16:45:01.654Z,15.93
2022-11-10T16:47:49.149Z,15.89
2022-11-10T16:50:36.411Z,16.14
2022-11-10T16:53:24.054Z,15.72
2022-11-10T16:56:14.888Z,15.45
2022-11-10T16:59:00.230Z,15.43
2022-11-10T17:01:46.648Z,15.64
2022-11-10T17:04:32.133Z,15.39
2022-11-10T17:07:19.605Z,15.53
2022-11-10T17:10:05.962Z,15.12
2022-11-10T17:12:51.302Z,15.60
2022-11-10T17:15:39.299Z,15.24
2022-11-10T17:18:25.272Z,15.39
2022-11-10T17:21:12.744Z,15.60
2022-11-10T17:23:58.379Z,15.86
2022-11-10T17:26:43.668Z,15.54
2022-11-10T17:29:29.276Z,15.68
2022-11-10T17:32:14.511Z,15.74
2022-11-10T17:34:59.756Z,15.93
2022-11-10T17:37:49.267Z,15.83
2022-11-10T17:40:35.562Z,15.89
2022-11-10T17:43:21.621Z,15.30
2022-11-10T17:46:07.087Z,15.71
2022-11-10T17:49:00.101Z,15.23
2022-11-10T17:51:48.258Z,15.44
2022-11-10T17:57:54.453Z,15.47
2022-11-10T18:00:40.340Z,15.45
2022-11-10T18:03:25.682Z,15.40
2022-11-10T18:06:15.620Z,15.13
2022-11-10T18:09:00.685Z,15.30
2022-11-10T18:11:46.094Z,15.34
2022-11-10T18:14:34.697Z,15.25
2022-11-10T18:17:20.195Z,15.26
2022-11-10T18:20:06.010Z,15.29
2022-11-10T18:22:52.132Z,15.36
2022-11-10T18:25:40.030Z,14.79
2022-11-10T18:28:25.530Z,14.61
2022-11-10T18:31:13.343Z,14.80
2022-11-10T18:33:58.546Z,14.89
2022-11-10T18:36:43.922Z,14.85
2022-11-10T18:39:29.823Z,14.90
2022-11-10T18:42:15.337Z,14.53
2022-11-10T18:45:00.904Z,14.38
2022-11-10T18:47:46.380Z,14.74
2022-11-10T18:50:31.937Z,14.60
2022-11-10T18:53:17.130Z,14.51
2022-11-10T18:56:02.406Z,14.79
2022-11-10T18:58:56.249Z,14.68
2022-11-10T19:01:42.354Z,14.20
2022-11-10T19:04:28.202Z,14.75
2022-11-10T19:07:13.658Z,14.41
2022-11-10T19:10:00.063Z,14.22
2022-11-10T19:12:45.497Z,14.80
2022-11-10T19:15:30.940Z,14.57
2022-11-10T19:18:16.613Z,14.63
2022-11-10T19:21:19.479Z,14.64
2022-11-10T19:24:05.457Z,14.65
2022-11-10T19:26:51.914Z,14.26
2022-11-10T19:29:37.012Z,14.55
2022-11-10T19:32:25.042Z,14.24
2022-11-10T19:35:12.172Z,14.67
2022-11-10T19:37:57.240Z,14.82
2022-11-10T19:40:44.723Z,14.40
2022-11-10T19:43:31.059Z,14.42
2022-11-10T19:46:18.529Z,14.37
2022-11-10T19:49:04.621Z,14.76
2022-11-10T19:51:50.615Z,14.63
2022-11-10T19:54:36.673Z,14.38
2022-11-10T19:57:23.222Z,14.69
2022-11-10T20:00:09.157Z,14.56
2022-11-10T20:02:54.804Z,14.48
2022-11-10T20:05:41.001Z,15.03
2022-11-10T20:08:26.408Z,14.85
2022-11-10T20:11:17.781Z,14.48
2022-11-10T20:14:05.999Z,14.25
2022-11-10T20:16:51.406Z,14.41
2022-11-10T20:19:40.800Z,14.20
2022-11-10T20:22:26.514Z,14.33
2022-11-10T20:25:12.324Z,14.45
2022-11-10T20:27:58.382Z,14.49
2022-11-10T20:30:44.442Z,14.48
2022-11-10T20:33:31.174Z,14.56
2022-11-10T20:36:46.246Z,14.87
2022-11-10T20:39:32.606Z,14.79
2022-11-10T20:42:18.705Z,14.58
2022-11-10T20:45:05.790Z,14.78
2022-11-10T20:47:51.218Z,14.89
2022-11-10T20:50:39.754Z,14.80
2022-11-10T20:53:26.368Z,14.87
2022-11-10T20:56:12.967Z,14.74
2022-11-10T20:58:58.866Z,14.23
2022-11-10T21:01:44.673Z,14.15
2022-11-10T21:08:10.016Z,13.93
2022-11-10T21:11:06.460Z,14.15
2022-11-10T21:13:51.745Z,14.10
2022-11-10T21:16:37.247Z,13.87
2022-11-10T21:19:23.176Z,13.79
2022-11-10T21:22:08.547Z,13.95
2022-11-10T21:24:54.008Z,14.00
2022-11-10T21:27:39.629Z,13.79
2022-11-10T21:30:25.220Z,13.90
2022-11-10T21:33:11.954Z,14.04
2022-11-10T21:35:57.518Z,13.72
2022-11-10T21:38:46.578Z,13.51
2022-11-10T21:41:32.533Z,13.97
2022-11-10T21:44:18.026Z,13.71
2022-11-10T21:47:03.508Z,13.81
2022-11-10T21:49:48.712Z,13.80
2022-11-10T21:52:34.162Z,13.93
2022-11-10T21:55:19.869Z,13.32
2022-11-10T21:58:07.251Z,13.32
2022-11-10T22:00:52.806Z,13.94
2022-11-10T22:03:38.661Z,13.44
2022-11-10T22:06:44.357Z,13.33
2022-11-10T22:09:48.071Z,13.47
2022-11-10T22:12:52.108Z,13.36
2022-11-10T22:16:00.445Z,13.77
2022-11-10T22:18:46.687Z,13.63
2022-11-10T22:21:32.102Z,13.92
2022-11-10T22:24:23.545Z,13.66
2022-11-10T22:27:08.746Z,13.81
2022-11-10T22:29:54.367Z,14.31
2022-11-10T22:32:39.478Z,13.78
2022-11-10T22:35:43.236Z,13.78
2022-11-10T22:38:29.788Z,13.85
2022-11-10T22:41:34.903Z,13.64
2022-11-10T22:44:24.814Z,14.07
2022-11-10T22:47:10.488Z,13.62
2022-11-10T22:49:55.767Z,13.95
2022-11-10T22:52:41.114Z,13.75
2022-11-10T22:55:27.229Z,13.99
2022-11-10T22:58:12.716Z,13.99
2022-11-10T23:01:09.641Z,14.07
2022-11-10T23:03:58.042Z,13.90
2022-11-10T23:06:43.715Z,13.22
2022-11-10T23:09:29.652Z,13.43
2022-11-10T23:12:14.666Z,13.12
2022-11-10T23:15:00.267Z,13.56
2022-11-10T23:17:45.574Z,13.57
2022-11-10T23:20:31.249Z,13.84
2022-11-10T23:23:16.854Z,13.94
2022-11-10T23:26:16.529Z,13.73
2022-11-10T23:29:02.051Z,13.44
2022-11-10T23:31:47.349Z,13.56
2022-11-10T23:34:32.627Z,13.95
2022-11-10T23:37:17.966Z,14.20
2022-11-10T23:40:03.610Z,14.27
2022-11-10T23:42:49.097Z,13.90
2022-11-10T23:46:04.881Z,13.42
2022-11-10T23:48:40.534Z,13.89
2022-11-10T23:51:25.917Z,13.85
2022-11-10T23:54:11.403Z,13.87
2022-11-10T23:56:56.753Z,13.84
2022-11-10T23:59:42.087Z,13.38
